23PN weather

Public forecast

Using degrees Fahrenheit for public forecast. Weather courtesy of forecast.io.

Closest aviation weather report (METAR) to Penn Highlands Clearfield Heliport

Closest report is Clearfield Lawrence Airport, 1.9 nm (3.5 km) ENE. Retrieved 2020/08/09 11:54 UTC (2 hours ago):

KFIG 091154Z AUTO 00000KT 10SM CLR 16/13 A3020 RMK AO2 SLP220 T01560133 10167 20128 53004

Closest aviation forecast (TAF) to Penn Highlands Clearfield Heliport

Closest forecast is DuBois Regional Airport, 22.1 nm (40.9 km) WNW. Retrieved 2020/08/09 12:36 UTC (1 hour ago):

TAF KDUJ 091133Z 0912/1012 VRB04KT P6SM SCT040